sensor_id;sensor_type;location;lat;lon;timestamp;P1;durP1;ratioP1;P2;durP2;ratioP2
18146;SDS011;9199;48.832;9.182;2022-08-19T00:00:07;15.57;;;11.60;;
18146;SDS011;9199;48.832;9.182;2022-08-19T00:02:35;14.52;;;10.25;;
18146;SDS011;9199;48.832;9.182;2022-08-19T00:05:03;15.32;;;10.95;;
18146;SDS011;9199;48.832;9.182;2022-08-19T00:07:30;15.23;;;11.00;;
18146;SDS011;9199;48.832;9.182;2022-08-19T00:09:58;15.00;;;11.15;;
18146;SDS011;9199;48.832;9.182;2022-08-19T00:12:25;15.70;;;11.03;;
18146;SDS011;9199;48.832;9.182;2022-08-19T00:14:53;14.43;;;10.25;;
18146;SDS011;9199;48.832;9.182;2022-08-19T00:17:20;14.45;;;10.48;;
18146;SDS011;9199;48.832;9.182;2022-08-19T00:19:46;14.70;;;10.55;;
18146;SDS011;9199;48.832;9.182;2022-08-19T00:22:13;16.45;;;10.98;;
18146;SDS011;9199;48.832;9.182;2022-08-19T00:24:42;15.27;;;10.73;;
18146;SDS011;9199;48.832;9.182;2022-08-19T00:27:11;17.10;;;10.90;;
18146;SDS011;9199;48.832;9.182;2022-08-19T00:29:38;14.82;;;11.00;;
18146;SDS011;9199;48.832;9.182;2022-08-19T00:32:05;14.85;;;10.50;;
18146;SDS011;9199;48.832;9.182;2022-08-19T00:34:32;14.90;;;10.70;;
18146;SDS011;9199;48.832;9.182;2022-08-19T00:36:59;16.50;;;10.97;;
18146;SDS011;9199;48.832;9.182;2022-08-19T00:39:26;14.38;;;10.48;;
18146;SDS011;9199;48.832;9.182;2022-08-19T00:41:53;14.80;;;10.77;;
18146;SDS011;9199;48.832;9.182;2022-08-19T00:44:21;16.02;;;11.10;;
18146;SDS011;9199;48.832;9.182;2022-08-19T00:46:50;17.17;;;11.40;;
18146;SDS011;9199;48.832;9.182;2022-08-19T00:49:19;14.93;;;11.17;;
18146;SDS011;9199;48.832;9.182;2022-08-19T00:51:51;15.18;;;11.07;;
18146;SDS011;9199;48.832;9.182;2022-08-19T00:54:22;16.70;;;11.50;;
18146;SDS011;9199;48.832;9.182;2022-08-19T00:56:49;18.95;;;11.73;;
18146;SDS011;9199;48.832;9.182;2022-08-19T00:59:17;13.23;;;10.18;;
18146;SDS011;9199;48.832;9.182;2022-08-19T01:01:46;16.77;;;11.20;;
18146;SDS011;9199;48.832;9.182;2022-08-19T01:04:13;15.20;;;11.07;;
18146;SDS011;9199;48.832;9.182;2022-08-19T01:06:40;15.98;;;11.43;;
18146;SDS011;9199;48.832;9.182;2022-08-19T01:09:07;16.45;;;12.30;;
18146;SDS011;9199;48.832;9.182;2022-08-19T01:11:35;15.43;;;11.00;;
18146;SDS011;9199;48.832;9.182;2022-08-19T01:14:05;17.17;;;11.77;;
18146;SDS011;9199;48.832;9.182;2022-08-19T01:16:33;14.88;;;10.85;;
18146;SDS011;9199;48.832;9.182;2022-08-19T01:19:03;16.42;;;11.63;;
18146;SDS011;9199;48.832;9.182;2022-08-19T01:21:39;17.30;;;11.95;;
18146;SDS011;9199;48.832;9.182;2022-08-19T01:24:11;16.67;;;11.63;;
18146;SDS011;9199;48.832;9.182;2022-08-19T01:26:38;15.37;;;11.27;;
18146;SDS011;9199;48.832;9.182;2022-08-19T01:29:07;15.77;;;11.73;;
18146;SDS011;9199;48.832;9.182;2022-08-19T01:31:34;16.55;;;11.32;;
18146;SDS011;9199;48.832;9.182;2022-08-19T01:34:02;15.75;;;11.40;;
18146;SDS011;9199;48.832;9.182;2022-08-19T01:36:31;18.75;;;12.07;;
18146;SDS011;9199;48.832;9.182;2022-08-19T01:39:02;16.47;;;11.20;;
18146;SDS011;9199;48.832;9.182;2022-08-19T01:41:33;17.35;;;11.75;;
18146;SDS011;9199;48.832;9.182;2022-08-19T01:44:01;18.40;;;12.00;;
18146;SDS011;9199;48.832;9.182;2022-08-19T01:46:29;17.20;;;12.50;;
18146;SDS011;9199;48.832;9.182;2022-08-19T01:48:57;16.55;;;11.80;;
18146;SDS011;9199;48.832;9.182;2022-08-19T01:51:24;17.37;;;11.90;;
18146;SDS011;9199;48.832;9.182;2022-08-19T01:53:51;19.58;;;12.65;;
18146;SDS011;9199;48.832;9.182;2022-08-19T01:56:18;17.83;;;12.50;;
18146;SDS011;9199;48.832;9.182;2022-08-19T01:58:48;16.25;;;11.60;;
18146;SDS011;9199;48.832;9.182;2022-08-19T02:01:19;17.65;;;12.82;;
18146;SDS011;9199;48.832;9.182;2022-08-19T02:03:46;17.53;;;11.87;;
18146;SDS011;9199;48.832;9.182;2022-08-19T02:06:13;17.35;;;12.45;;
18146;SDS011;9199;48.832;9.182;2022-08-19T02:08:42;17.70;;;12.75;;
18146;SDS011;9199;48.832;9.182;2022-08-19T02:11:17;18.63;;;12.80;;
18146;SDS011;9199;48.832;9.182;2022-08-19T02:13:47;19.08;;;12.85;;
18146;SDS011;9199;48.832;9.182;2022-08-19T02:16:15;20.17;;;13.43;;
18146;SDS011;9199;48.832;9.182;2022-08-19T02:18:43;20.92;;;13.30;;
18146;SDS011;9199;48.832;9.182;2022-08-19T02:21:10;20.52;;;13.82;;
18146;SDS011;9199;48.832;9.182;2022-08-19T02:23:38;21.83;;;13.63;;
18146;SDS011;9199;48.832;9.182;2022-08-19T02:26:05;20.63;;;14.00;;
18146;SDS011;9199;48.832;9.182;2022-08-19T02:28:31;19.83;;;13.27;;
18146;SDS011;9199;48.832;9.182;2022-08-19T02:30:59;20.52;;;13.90;;
18146;SDS011;9199;48.832;9.182;2022-08-19T02:33:27;21.55;;;14.57;;
18146;SDS011;9199;48.832;9.182;2022-08-19T02:35:54;21.40;;;14.23;;
18146;SDS011;9199;48.832;9.182;2022-08-19T02:38:21;21.58;;;14.48;;
18146;SDS011;9199;48.832;9.182;2022-08-19T02:40:55;21.13;;;14.53;;
18146;SDS011;9199;48.832;9.182;2022-08-19T02:43:23;22.20;;;14.85;;
18146;SDS011;9199;48.832;9.182;2022-08-19T02:45:51;22.20;;;14.25;;
18146;SDS011;9199;48.832;9.182;2022-08-19T02:48:20;22.48;;;14.90;;
18146;SDS011;9199;48.832;9.182;2022-08-19T02:50:48;21.38;;;14.63;;
18146;SDS011;9199;48.832;9.182;2022-08-19T02:53:20;22.23;;;15.10;;
18146;SDS011;9199;48.832;9.182;2022-08-19T02:55:48;22.10;;;14.88;;
18146;SDS011;9199;48.832;9.182;2022-08-19T02:58:16;22.45;;;15.02;;
18146;SDS011;9199;48.832;9.182;2022-08-19T03:00:44;22.67;;;14.80;;
18146;SDS011;9199;48.832;9.182;2022-08-19T03:03:13;24.75;;;16.08;;
18146;SDS011;9199;48.832;9.182;2022-08-19T03:05:41;21.90;;;14.90;;
18146;SDS011;9199;48.832;9.182;2022-08-19T03:08:09;22.48;;;15.27;;
18146;SDS011;9199;48.832;9.182;2022-08-19T03:10:42;21.40;;;14.73;;
18146;SDS011;9199;48.832;9.182;2022-08-19T03:13:11;22.02;;;15.50;;
18146;SDS011;9199;48.832;9.182;2022-08-19T03:15:40;22.60;;;15.68;;
18146;SDS011;9199;48.832;9.182;2022-08-19T03:18:07;24.40;;;16.03;;
18146;SDS011;9199;48.832;9.182;2022-08-19T03:20:39;23.38;;;16.17;;
18146;SDS011;9199;48.832;9.182;2022-08-19T03:23:08;24.50;;;16.27;;
18146;SDS011;9199;48.832;9.182;2022-08-19T03:25:36;24.60;;;16.73;;
18146;SDS011;9199;48.832;9.182;2022-08-19T03:28:05;23.30;;;16.08;;
18146;SDS011;9199;48.832;9.182;2022-08-19T03:30:32;24.27;;;16.37;;
18146;SDS011;9199;48.832;9.182;2022-08-19T03:33:00;23.65;;;16.33;;
18146;SDS011;9199;48.832;9.182;2022-08-19T03:35:26;26.25;;;16.60;;
18146;SDS011;9199;48.832;9.182;2022-08-19T03:37:55;24.13;;;16.75;;
18146;SDS011;9199;48.832;9.182;2022-08-19T03:40:22;22.58;;;16.38;;
18146;SDS011;9199;48.832;9.182;2022-08-19T03:42:48;24.13;;;16.30;;
18146;SDS011;9199;48.832;9.182;2022-08-19T03:45:15;24.88;;;17.08;;
18146;SDS011;9199;48.832;9.182;2022-08-19T03:47:42;24.20;;;17.27;;
18146;SDS011;9199;48.832;9.182;2022-08-19T03:50:10;25.48;;;17.08;;
18146;SDS011;9199;48.832;9.182;2022-08-19T03:52:37;24.58;;;16.80;;
18146;SDS011;9199;48.832;9.182;2022-08-19T03:55:06;24.87;;;17.00;;
18146;SDS011;9199;48.832;9.182;2022-08-19T03:57:33;26.85;;;17.10;;
18146;SDS011;9199;48.832;9.182;2022-08-19T04:00:00;24.25;;;16.08;;
18146;SDS011;9199;48.832;9.182;2022-08-19T04:02:29;24.67;;;17.30;;
18146;SDS011;9199;48.832;9.182;2022-08-19T04:04:56;25.27;;;17.20;;
18146;SDS011;9199;48.832;9.182;2022-08-19T04:07:22;26.57;;;17.57;;
18146;SDS011;9199;48.832;9.182;2022-08-19T04:09:49;25.10;;;18.27;;
18146;SDS011;9199;48.832;9.182;2022-08-19T04:12:19;26.55;;;18.50;;
18146;SDS011;9199;48.832;9.182;2022-08-19T04:14:46;24.63;;;17.25;;
18146;SDS011;9199;48.832;9.182;2022-08-19T04:17:13;24.63;;;17.35;;
18146;SDS011;9199;48.832;9.182;2022-08-19T04:19:40;23.90;;;17.80;;
18146;SDS011;9199;48.832;9.182;2022-08-19T04:22:07;21.02;;;15.15;;
18146;SDS011;9199;48.832;9.182;2022-08-19T04:24:36;27.83;;;16.90;;
18146;SDS011;9199;48.832;9.182;2022-08-19T04:27:03;26.63;;;18.25;;
18146;SDS011;9199;48.832;9.182;2022-08-19T04:29:33;22.77;;;16.35;;
18146;SDS011;9199;48.832;9.182;2022-08-19T04:32:00;27.47;;;18.60;;
18146;SDS011;9199;48.832;9.182;2022-08-19T04:34:28;25.48;;;18.52;;
18146;SDS011;9199;48.832;9.182;2022-08-19T04:36:56;25.90;;;17.45;;
18146;SDS011;9199;48.832;9.182;2022-08-19T04:39:25;26.08;;;17.08;;
18146;SDS011;9199;48.832;9.182;2022-08-19T04:42:08;24.15;;;17.23;;
18146;SDS011;9199;48.832;9.182;2022-08-19T04:44:54;27.20;;;17.93;;
18146;SDS011;9199;48.832;9.182;2022-08-19T04:47:20;23.55;;;17.10;;
18146;SDS011;9199;48.832;9.182;2022-08-19T04:49:47;24.02;;;17.02;;
18146;SDS011;9199;48.832;9.182;2022-08-19T04:52:14;27.42;;;18.08;;
18146;SDS011;9199;48.832;9.182;2022-08-19T04:54:41;25.23;;;18.05;;
18146;SDS011;9199;48.832;9.182;2022-08-19T04:57:07;24.50;;;18.43;;
18146;SDS011;9199;48.832;9.182;2022-08-19T04:59:35;25.08;;;18.02;;
18146;SDS011;9199;48.832;9.182;2022-08-19T05:02:04;24.15;;;18.00;;
18146;SDS011;9199;48.832;9.182;2022-08-19T05:04:32;24.42;;;17.88;;
18146;SDS011;9199;48.832;9.182;2022-08-19T05:07:00;26.77;;;18.70;;
18146;SDS011;9199;48.832;9.182;2022-08-19T05:09:27;23.93;;;17.33;;
18146;SDS011;9199;48.832;9.182;2022-08-19T05:11:55;25.65;;;17.60;;
18146;SDS011;9199;48.832;9.182;2022-08-19T05:14:21;29.50;;;18.73;;
18146;SDS011;9199;48.832;9.182;2022-08-19T05:16:48;27.13;;;18.80;;
18146;SDS011;9199;48.832;9.182;2022-08-19T05:19:16;27.40;;;18.67;;
18146;SDS011;9199;48.832;9.182;2022-08-19T05:22:01;27.80;;;19.13;;
18146;SDS011;9199;48.832;9.182;2022-08-19T05:24:45;25.40;;;17.67;;
18146;SDS011;9199;48.832;9.182;2022-08-19T05:27:12;24.92;;;18.52;;
18146;SDS011;9199;48.832;9.182;2022-08-19T05:29:39;24.60;;;17.65;;
18146;SDS011;9199;48.832;9.182;2022-08-19T05:32:06;24.88;;;18.02;;
18146;SDS011;9199;48.832;9.182;2022-08-19T05:34:36;25.87;;;17.90;;
18146;SDS011;9199;48.832;9.182;2022-08-19T05:37:04;23.20;;;17.52;;
18146;SDS011;9199;48.832;9.182;2022-08-19T05:39:33;25.20;;;17.88;;
18146;SDS011;9199;48.832;9.182;2022-08-19T05:42:02;22.30;;;17.63;;
18146;SDS011;9199;48.832;9.182;2022-08-19T05:44:32;25.65;;;18.75;;
18146;SDS011;9199;48.832;9.182;2022-08-19T05:47:01;24.23;;;18.50;;
18146;SDS011;9199;48.832;9.182;2022-08-19T05:49:30;26.27;;;18.77;;
18146;SDS011;9199;48.832;9.182;2022-08-19T05:51:59;27.20;;;18.65;;
18146;SDS011;9199;48.832;9.182;2022-08-19T05:54:28;25.65;;;18.23;;
18146;SDS011;9199;48.832;9.182;2022-08-19T05:56:56;27.23;;;19.17;;
18146;SDS011;9199;48.832;9.182;2022-08-19T05:59:23;26.33;;;18.73;;
18146;SDS011;9199;48.832;9.182;2022-08-19T06:01:51;25.70;;;18.98;;
18146;SDS011;9199;48.832;9.182;2022-08-19T06:04:19;27.42;;;18.48;;
18146;SDS011;9199;48.832;9.182;2022-08-19T06:06:47;26.48;;;19.23;;
18146;SDS011;9199;48.832;9.182;2022-08-19T06:09:16;24.85;;;18.23;;
18146;SDS011;9199;48.832;9.182;2022-08-19T06:11:45;25.00;;;18.73;;
18146;SDS011;9199;48.832;9.182;2022-08-19T06:14:13;24.35;;;17.90;;
18146;SDS011;9199;48.832;9.182;2022-08-19T06:16:43;25.17;;;18.25;;
18146;SDS011;9199;48.832;9.182;2022-08-19T06:19:11;27.08;;;18.23;;
18146;SDS011;9199;48.832;9.182;2022-08-19T06:21:41;27.08;;;17.98;;
18146;SDS011;9199;48.832;9.182;2022-08-19T06:24:10;27.30;;;18.10;;
18146;SDS011;9199;48.832;9.182;2022-08-19T06:26:40;25.80;;;18.02;;
18146;SDS011;9199;48.832;9.182;2022-08-19T06:29:09;27.85;;;18.40;;
18146;SDS011;9199;48.832;9.182;2022-08-19T06:31:40;23.52;;;17.85;;
18146;SDS011;9199;48.832;9.182;2022-08-19T06:34:09;22.70;;;17.42;;
18146;SDS011;9199;48.832;9.182;2022-08-19T06:36:36;24.23;;;17.93;;
18146;SDS011;9199;48.832;9.182;2022-08-19T06:39:07;25.98;;;17.95;;
18146;SDS011;9199;48.832;9.182;2022-08-19T06:41:38;27.23;;;18.98;;
18146;SDS011;9199;48.832;9.182;2022-08-19T06:44:08;25.40;;;18.92;;
18146;SDS011;9199;48.832;9.182;2022-08-19T06:46:35;26.30;;;18.95;;
18146;SDS011;9199;48.832;9.182;2022-08-19T06:49:02;26.27;;;18.57;;
18146;SDS011;9199;48.832;9.182;2022-08-19T06:51:29;27.58;;;19.23;;
18146;SDS011;9199;48.832;9.182;2022-08-19T06:53:57;28.02;;;20.33;;
18146;SDS011;9199;48.832;9.182;2022-08-19T06:56:25;28.30;;;19.15;;
18146;SDS011;9199;48.832;9.182;2022-08-19T06:59:00;30.25;;;20.05;;
18146;SDS011;9199;48.832;9.182;2022-08-19T07:01:27;27.03;;;19.83;;
18146;SDS011;9199;48.832;9.182;2022-08-19T07:03:54;27.10;;;19.33;;
18146;SDS011;9199;48.832;9.182;2022-08-19T07:06:22;29.38;;;18.70;;
18146;SDS011;9199;48.832;9.182;2022-08-19T07:08:48;29.15;;;18.83;;
18146;SDS011;9199;48.832;9.182;2022-08-19T07:11:17;25.77;;;18.20;;
18146;SDS011;9199;48.832;9.182;2022-08-19T07:13:46;26.87;;;19.30;;
18146;SDS011;9199;48.832;9.182;2022-08-19T07:16:16;25.38;;;18.52;;
18146;SDS011;9199;48.832;9.182;2022-08-19T07:18:45;25.80;;;18.15;;
18146;SDS011;9199;48.832;9.182;2022-08-19T07:21:13;24.95;;;17.30;;
18146;SDS011;9199;48.832;9.182;2022-08-19T07:23:41;25.38;;;17.42;;
18146;SDS011;9199;48.832;9.182;2022-08-19T07:26:09;25.83;;;18.07;;
18146;SDS011;9199;48.832;9.182;2022-08-19T07:28:38;24.70;;;17.60;;
18146;SDS011;9199;48.832;9.182;2022-08-19T07:31:05;23.77;;;16.63;;
18146;SDS011;9199;48.832;9.182;2022-08-19T07:33:33;23.23;;;17.52;;
18146;SDS011;9199;48.832;9.182;2022-08-19T07:36:02;23.80;;;17.50;;
18146;SDS011;9199;48.832;9.182;2022-08-19T07:38:30;24.07;;;16.70;;
18146;SDS011;9199;48.832;9.182;2022-08-19T07:40:57;25.77;;;17.50;;
18146;SDS011;9199;48.832;9.182;2022-08-19T07:43:23;28.30;;;18.00;;
18146;SDS011;9199;48.832;9.182;2022-08-19T07:45:51;22.05;;;16.33;;
18146;SDS011;9199;48.832;9.182;2022-08-19T07:48:21;23.92;;;17.00;;
18146;SDS011;9199;48.832;9.182;2022-08-19T07:50:51;21.87;;;15.93;;
18146;SDS011;9199;48.832;9.182;2022-08-19T07:53:19;21.95;;;16.20;;
18146;SDS011;9199;48.832;9.182;2022-08-19T07:55:46;21.45;;;15.38;;
18146;SDS011;9199;48.832;9.182;2022-08-19T07:58:14;24.67;;;16.52;;
18146;SDS011;9199;48.832;9.182;2022-08-19T08:00:44;21.77;;;16.02;;
18146;SDS011;9199;48.832;9.182;2022-08-19T08:03:12;22.83;;;16.33;;
18146;SDS011;9199;48.832;9.182;2022-08-19T08:05:41;21.15;;;15.35;;
18146;SDS011;9199;48.832;9.182;2022-08-19T08:08:27;24.42;;;16.77;;
18146;SDS011;9199;48.832;9.182;2022-08-19T08:11:11;23.17;;;15.68;;
18146;SDS011;9199;48.832;9.182;2022-08-19T08:13:39;20.25;;;15.35;;
18146;SDS011;9199;48.832;9.182;2022-08-19T08:16:06;26.03;;;15.20;;
18146;SDS011;9199;48.832;9.182;2022-08-19T08:18:33;21.25;;;14.63;;
18146;SDS011;9199;48.832;9.182;2022-08-19T08:21:06;22.17;;;14.98;;
18146;SDS011;9199;48.832;9.182;2022-08-19T08:23:34;20.73;;;15.15;;
18146;SDS011;9199;48.832;9.182;2022-08-19T08:26:01;20.15;;;14.55;;
18146;SDS011;9199;48.832;9.182;2022-08-19T08:28:29;20.27;;;14.63;;
18146;SDS011;9199;48.832;9.182;2022-08-19T08:30:57;20.05;;;14.50;;
18146;SDS011;9199;48.832;9.182;2022-08-19T08:33:25;20.65;;;15.15;;
18146;SDS011;9199;48.832;9.182;2022-08-19T08:35:55;25.67;;;15.65;;
18146;SDS011;9199;48.832;9.182;2022-08-19T08:38:21;24.55;;;17.88;;
18146;SDS011;9199;48.832;9.182;2022-08-19T08:40:50;21.87;;;16.97;;
18146;SDS011;9199;48.832;9.182;2022-08-19T08:43:22;24.52;;;17.65;;
18146;SDS011;9199;48.832;9.182;2022-08-19T08:45:58;24.58;;;17.23;;
18146;SDS011;9199;48.832;9.182;2022-08-19T08:48:34;26.80;;;18.45;;
18146;SDS011;9199;48.832;9.182;2022-08-19T08:51:07;27.95;;;19.25;;
18146;SDS011;9199;48.832;9.182;2022-08-19T08:53:38;24.83;;;18.40;;
18146;SDS011;9199;48.832;9.182;2022-08-19T08:56:08;24.60;;;17.42;;
18146;SDS011;9199;48.832;9.182;2022-08-19T08:58:40;25.40;;;17.48;;
18146;SDS011;9199;48.832;9.182;2022-08-19T09:01:14;23.85;;;17.83;;
18146;SDS011;9199;48.832;9.182;2022-08-19T09:03:41;25.63;;;16.80;;
18146;SDS011;9199;48.832;9.182;2022-08-19T09:06:11;23.17;;;16.43;;
18146;SDS011;9199;48.832;9.182;2022-08-19T09:08:45;22.30;;;16.42;;
18146;SDS011;9199;48.832;9.182;2022-08-19T09:11:19;26.20;;;16.38;;
18146;SDS011;9199;48.832;9.182;2022-08-19T09:14:02;23.40;;;16.52;;
18146;SDS011;9199;48.832;9.182;2022-08-19T09:16:39;24.35;;;16.13;;
18146;SDS011;9199;48.832;9.182;2022-08-19T09:19:06;20.60;;;15.47;;
18146;SDS011;9199;48.832;9.182;2022-08-19T09:21:35;22.45;;;16.77;;
18146;SDS011;9199;48.832;9.182;2022-08-19T09:24:03;20.73;;;15.10;;
18146;SDS011;9199;48.832;9.182;2022-08-19T09:26:32;19.25;;;14.77;;
18146;SDS011;9199;48.832;9.182;2022-08-19T09:29:00;18.42;;;14.10;;
18146;SDS011;9199;48.832;9.182;2022-08-19T09:31:29;21.60;;;13.87;;
18146;SDS011;9199;48.832;9.182;2022-08-19T09:33:57;18.90;;;14.18;;
18146;SDS011;9199;48.832;9.182;2022-08-19T09:36:26;21.08;;;13.77;;
18146;SDS011;9199;48.832;9.182;2022-08-19T09:38:57;18.75;;;13.63;;
18146;SDS011;9199;48.832;9.182;2022-08-19T09:41:25;19.95;;;13.35;;
18146;SDS011;9199;48.832;9.182;2022-08-19T09:43:53;18.40;;;12.30;;
18146;SDS011;9199;48.832;9.182;2022-08-19T09:46:22;17.35;;;13.27;;
18146;SDS011;9199;48.832;9.182;2022-08-19T09:48:51;18.63;;;12.60;;
18146;SDS011;9199;48.832;9.182;2022-08-19T09:51:20;16.83;;;12.80;;
18146;SDS011;9199;48.832;9.182;2022-08-19T09:53:49;17.98;;;12.80;;
18146;SDS011;9199;48.832;9.182;2022-08-19T09:56:19;14.90;;;11.67;;
18146;SDS011;9199;48.832;9.182;2022-08-19T09:58:46;18.45;;;12.65;;
18146;SDS011;9199;48.832;9.182;2022-08-19T10:01:18;17.02;;;12.63;;
18146;SDS011;9199;48.832;9.182;2022-08-19T10:03:49;17.63;;;12.57;;
18146;SDS011;9199;48.832;9.182;2022-08-19T10:06:18;16.60;;;12.00;;
18146;SDS011;9199;48.832;9.182;2022-08-19T10:08:45;15.67;;;11.33;;
18146;SDS011;9199;48.832;9.182;2022-08-19T10:11:13;16.08;;;11.48;;
18146;SDS011;9199;48.832;9.182;2022-08-19T10:13:43;17.02;;;11.45;;
18146;SDS011;9199;48.832;9.182;2022-08-19T10:16:11;14.73;;;10.80;;
18146;SDS011;9199;48.832;9.182;2022-08-19T10:18:40;15.35;;;11.55;;
18146;SDS011;9199;48.832;9.182;2022-08-19T10:21:09;16.80;;;12.37;;
18146;SDS011;9199;48.832;9.182;2022-08-19T10:23:39;16.27;;;11.55;;
18146;SDS011;9199;48.832;9.182;2022-08-19T10:26:13;16.42;;;11.43;;
18146;SDS011;9199;48.832;9.182;2022-08-19T10:28:42;15.02;;;11.00;;
18146;SDS011;9199;48.832;9.182;2022-08-19T10:31:10;16.73;;;10.40;;
18146;SDS011;9199;48.832;9.182;2022-08-19T10:33:41;13.27;;;10.00;;
18146;SDS011;9199;48.832;9.182;2022-08-19T10:36:09;13.65;;;10.30;;
18146;SDS011;9199;48.832;9.182;2022-08-19T10:38:40;13.43;;;10.00;;
18146;SDS011;9199;48.832;9.182;2022-08-19T10:41:08;14.02;;;9.93;;
18146;SDS011;9199;48.832;9.182;2022-08-19T10:43:36;15.25;;;9.93;;
18146;SDS011;9199;48.832;9.182;2022-08-19T10:46:04;13.43;;;9.17;;
18146;SDS011;9199;48.832;9.182;2022-08-19T10:48:31;14.00;;;9.23;;
18146;SDS011;9199;48.832;9.182;2022-08-19T10:51:00;13.75;;;9.57;;
18146;SDS011;9199;48.832;9.182;2022-08-19T10:53:45;11.68;;;8.48;;
18146;SDS011;9199;48.832;9.182;2022-08-19T10:56:12;12.40;;;8.73;;
18146;SDS011;9199;48.832;9.182;2022-08-19T10:58:56;11.23;;;8.17;;
18146;SDS011;9199;48.832;9.182;2022-08-19T11:01:23;10.45;;;7.97;;
18146;SDS011;9199;48.832;9.182;2022-08-19T11:03:50;12.15;;;7.43;;
18146;SDS011;9199;48.832;9.182;2022-08-19T11:06:19;11.50;;;7.75;;
18146;SDS011;9199;48.832;9.182;2022-08-19T11:08:46;10.60;;;6.90;;
18146;SDS011;9199;48.832;9.182;2022-08-19T11:11:13;10.23;;;7.50;;
18146;SDS011;9199;48.832;9.182;2022-08-19T11:13:40;15.50;;;7.57;;
18146;SDS011;9199;48.832;9.182;2022-08-19T11:16:12;12.55;;;7.30;;
18146;SDS011;9199;48.832;9.182;2022-08-19T11:18:42;11.55;;;7.45;;
18146;SDS011;9199;48.832;9.182;2022-08-19T11:21:14;10.32;;;7.10;;
18146;SDS011;9199;48.832;9.182;2022-08-19T11:23:45;12.47;;;7.40;;
18146;SDS011;9199;48.832;9.182;2022-08-19T11:26:13;11.63;;;7.63;;
18146;SDS011;9199;48.832;9.182;2022-08-19T11:28:41;10.02;;;7.07;;
18146;SDS011;9199;48.832;9.182;2022-08-19T11:31:11;9.50;;;7.20;;
18146;SDS011;9199;48.832;9.182;2022-08-19T11:33:38;9.18;;;6.75;;
18146;SDS011;9199;48.832;9.182;2022-08-19T11:36:05;9.90;;;6.80;;
18146;SDS011;9199;48.832;9.182;2022-08-19T11:38:32;9.88;;;6.85;;
18146;SDS011;9199;48.832;9.182;2022-08-19T11:41:02;9.55;;;6.45;;
18146;SDS011;9199;48.832;9.182;2022-08-19T11:43:32;9.48;;;6.72;;
18146;SDS011;9199;48.832;9.182;2022-08-19T11:45:59;10.85;;;6.78;;
18146;SDS011;9199;48.832;9.182;2022-08-19T11:48:33;11.63;;;6.93;;
18146;SDS011;9199;48.832;9.182;2022-08-19T11:51:03;10.60;;;7.50;;
18146;SDS011;9199;48.832;9.182;2022-08-19T11:53:31;12.65;;;7.50;;
18146;SDS011;9199;48.832;9.182;2022-08-19T11:55:59;9.82;;;7.40;;
18146;SDS011;9199;48.832;9.182;2022-08-19T11:58:29;10.70;;;7.00;;
18146;SDS011;9199;48.832;9.182;2022-08-19T12:00:56;10.00;;;7.00;;
18146;SDS011;9199;48.832;9.182;2022-08-19T12:03:23;10.88;;;6.95;;
18146;SDS011;9199;48.832;9.182;2022-08-19T12:05:49;9.70;;;6.95;;
18146;SDS011;9199;48.832;9.182;2022-08-19T12:08:17;11.30;;;7.88;;
18146;SDS011;9199;48.832;9.182;2022-08-19T12:10:44;10.73;;;7.47;;
18146;SDS011;9199;48.832;9.182;2022-08-19T12:13:13;9.67;;;7.40;;
18146;SDS011;9199;48.832;9.182;2022-08-19T12:15:46;11.35;;;7.25;;
18146;SDS011;9199;48.832;9.182;2022-08-19T12:18:13;10.45;;;7.25;;
18146;SDS011;9199;48.832;9.182;2022-08-19T12:20:41;10.13;;;7.05;;
18146;SDS011;9199;48.832;9.182;2022-08-19T12:23:10;10.88;;;7.40;;
18146;SDS011;9199;48.832;9.182;2022-08-19T12:25:37;11.77;;;7.23;;
18146;SDS011;9199;48.832;9.182;2022-08-19T12:28:18;10.70;;;7.93;;
18146;SDS011;9199;48.832;9.182;2022-08-19T12:30:45;11.60;;;7.43;;
18146;SDS011;9199;48.832;9.182;2022-08-19T12:33:12;10.63;;;7.10;;
18146;SDS011;9199;48.832;9.182;2022-08-19T12:35:39;11.55;;;6.88;;
18146;SDS011;9199;48.832;9.182;2022-08-19T12:38:07;10.63;;;7.30;;
18146;SDS011;9199;48.832;9.182;2022-08-19T12:40:33;9.65;;;6.65;;
18146;SDS011;9199;48.832;9.182;2022-08-19T12:43:00;11.15;;;7.43;;
18146;SDS011;9199;48.832;9.182;2022-08-19T12:45:29;12.20;;;7.97;;
18146;SDS011;9199;48.832;9.182;2022-08-19T12:47:56;12.55;;;6.90;;
18146;SDS011;9199;48.832;9.182;2022-08-19T12:50:22;10.27;;;7.17;;
18146;SDS011;9199;48.832;9.182;2022-08-19T12:52:49;9.38;;;7.15;;
18146;SDS011;9199;48.832;9.182;2022-08-19T12:55:16;11.43;;;7.50;;
18146;SDS011;9199;48.832;9.182;2022-08-19T12:57:44;9.18;;;6.40;;
18146;SDS011;9199;48.832;9.182;2022-08-19T13:00:14;9.80;;;6.78;;
18146;SDS011;9199;48.832;9.182;2022-08-19T13:02:44;9.87;;;6.87;;
18146;SDS011;9199;48.832;9.182;2022-08-19T13:05:16;9.68;;;6.68;;
18146;SDS011;9199;48.832;9.182;2022-08-19T13:07:45;8.75;;;6.30;;
18146;SDS011;9199;48.832;9.182;2022-08-19T13:10:13;17.35;;;11.38;;
18146;SDS011;9199;48.832;9.182;2022-08-19T13:12:43;20.02;;;13.02;;
18146;SDS011;9199;48.832;9.182;2022-08-19T13:15:10;19.20;;;14.47;;
18146;SDS011;9199;48.832;9.182;2022-08-19T13:17:37;19.67;;;12.63;;
18146;SDS011;9199;48.832;9.182;2022-08-19T13:20:07;19.38;;;13.15;;
18146;SDS011;9199;48.832;9.182;2022-08-19T13:22:35;20.73;;;14.50;;
18146;SDS011;9199;48.832;9.182;2022-08-19T13:25:04;17.65;;;12.80;;
18146;SDS011;9199;48.832;9.182;2022-08-19T13:27:32;22.73;;;16.00;;
18146;SDS011;9199;48.832;9.182;2022-08-19T13:29:59;21.67;;;15.82;;
18146;SDS011;9199;48.832;9.182;2022-08-19T13:32:43;23.55;;;16.63;;
18146;SDS011;9199;48.832;9.182;2022-08-19T13:35:28;24.85;;;16.63;;
18146;SDS011;9199;48.832;9.182;2022-08-19T13:37:55;27.73;;;18.45;;
18146;SDS011;9199;48.832;9.182;2022-08-19T13:40:23;28.27;;;18.90;;
18146;SDS011;9199;48.832;9.182;2022-08-19T13:42:52;27.17;;;18.60;;
18146;SDS011;9199;48.832;9.182;2022-08-19T13:45:21;27.80;;;20.05;;
18146;SDS011;9199;48.832;9.182;2022-08-19T13:47:51;28.38;;;20.05;;
18146;SDS011;9199;48.832;9.182;2022-08-19T13:50:22;29.55;;;20.80;;
18146;SDS011;9199;48.832;9.182;2022-08-19T13:52:52;30.63;;;22.20;;
18146;SDS011;9199;48.832;9.182;2022-08-19T13:55:20;35.00;;;24.02;;
18146;SDS011;9199;48.832;9.182;2022-08-19T13:57:49;34.78;;;24.00;;
18146;SDS011;9199;48.832;9.182;2022-08-19T14:00:18;33.88;;;24.58;;
18146;SDS011;9199;48.832;9.182;2022-08-19T14:02:47;38.88;;;25.10;;
18146;SDS011;9199;48.832;9.182;2022-08-19T14:05:17;36.17;;;25.23;;
18146;SDS011;9199;48.832;9.182;2022-08-19T14:07:44;35.67;;;24.05;;
18146;SDS011;9199;48.832;9.182;2022-08-19T14:10:13;33.75;;;23.70;;
18146;SDS011;9199;48.832;9.182;2022-08-19T14:12:41;36.42;;;24.02;;
18146;SDS011;9199;48.832;9.182;2022-08-19T14:15:08;35.15;;;23.75;;
18146;SDS011;9199;48.832;9.182;2022-08-19T14:17:37;36.83;;;24.47;;
18146;SDS011;9199;48.832;9.182;2022-08-19T14:20:06;33.55;;;21.85;;
18146;SDS011;9199;48.832;9.182;2022-08-19T14:22:34;35.10;;;22.63;;
18146;SDS011;9199;48.832;9.182;2022-08-19T14:25:02;30.20;;;20.55;;
18146;SDS011;9199;48.832;9.182;2022-08-19T14:27:31;32.22;;;22.88;;
18146;SDS011;9199;48.832;9.182;2022-08-19T14:29:58;29.77;;;20.57;;
18146;SDS011;9199;48.832;9.182;2022-08-19T14:32:25;27.25;;;20.27;;
18146;SDS011;9199;48.832;9.182;2022-08-19T14:34:52;27.55;;;19.65;;
18146;SDS011;9199;48.832;9.182;2022-08-19T14:37:21;27.45;;;19.15;;
18146;SDS011;9199;48.832;9.182;2022-08-19T14:39:48;29.10;;;20.58;;
18146;SDS011;9199;48.832;9.182;2022-08-19T14:42:15;27.30;;;19.60;;
18146;SDS011;9199;48.832;9.182;2022-08-19T14:44:43;30.05;;;20.13;;
18146;SDS011;9199;48.832;9.182;2022-08-19T14:47:10;27.85;;;20.08;;